createdAt,value
2022-12-20T00:01:19.760Z,92.05
2022-12-20T00:03:51.440Z,91.20
2022-12-20T00:06:19.442Z,84.20
2022-12-20T00:08:47.407Z,85.85
2022-12-20T00:11:14.830Z,88.38
2022-12-20T00:13:42.191Z,100.50
2022-12-20T00:16:18.855Z,88.88
2022-12-20T00:18:46.385Z,87.95
2022-12-20T00:21:15.764Z,86.38
2022-12-20T00:23:43.108Z,85.43
2022-12-20T00:26:13.748Z,90.32
2022-12-20T00:28:42.745Z,84.05
2022-12-20T00:31:12.335Z,85.82
2022-12-20T00:33:41.263Z,97.72
2022-12-20T00:36:09.741Z,84.43
2022-12-20T00:38:37.447Z,94.35
2022-12-20T00:41:07.645Z,85.32
2022-12-20T00:43:38.164Z,80.30
2022-12-20T00:46:07.133Z,89.85
2022-12-20T00:48:35.150Z,87.10
2022-12-20T00:51:05.295Z,80.45
2022-12-20T00:53:33.344Z,88.63
2022-12-20T00:56:00.806Z,90.82
2022-12-20T00:58:28.893Z,91.95
2022-12-20T01:00:57.747Z,89.15
2022-12-20T01:03:26.409Z,86.60
2022-12-20T01:05:59.415Z,81.57
2022-12-20T01:08:29.199Z,88.45
2022-12-20T01:11:09.575Z,91.25
2022-12-20T01:13:38.715Z,92.13
2022-12-20T01:16:08.369Z,94.15
2022-12-20T01:18:35.937Z,97.40
2022-12-20T01:21:06.717Z,97.28
2022-12-20T01:23:34.197Z,99.63
2022-12-20T01:26:04.813Z,91.88
2022-12-20T01:28:33.036Z,87.72
2022-12-20T01:31:00.439Z,89.68
2022-12-20T01:33:28.187Z,98.30
2022-12-20T01:35:57.608Z,87.50
2022-12-20T01:38:25.074Z,83.25
2022-12-20T01:40:53.232Z,79.22
2022-12-20T01:43:21.788Z,86.80
2022-12-20T01:45:49.693Z,86.53
2022-12-20T01:48:21.810Z,88.88
2022-12-20T01:50:50.112Z,83.15
2022-12-20T01:53:20.120Z,84.63
2022-12-20T01:55:47.913Z,86.72
2022-12-20T01:58:17.971Z,92.63
2022-12-20T02:00:45.687Z,84.53
2022-12-20T02:03:16.706Z,93.55
2022-12-20T02:05:47.695Z,87.38
2022-12-20T02:08:19.387Z,89.57
2022-12-20T02:11:20.060Z,95.82
2022-12-20T02:14:11.973Z,89.75
2022-12-20T02:17:02.439Z,80.75
2022-12-20T02:20:00.911Z,84.78
2022-12-20T02:22:52.997Z,84.22
2022-12-20T02:25:57.232Z,84.80
2022-12-20T02:28:27.467Z,82.03
2022-12-20T02:30:57.328Z,83.63
2022-12-20T02:33:27.260Z,86.32
2022-12-20T02:35:54.900Z,81.63
2022-12-20T02:38:30.577Z,78.85
2022-12-20T02:41:16.872Z,84.07
2022-12-20T02:44:05.964Z,81.85
2022-12-20T02:46:35.149Z,74.00
2022-12-20T02:49:09.192Z,79.63
2022-12-20T02:51:37.040Z,80.03
2022-12-20T02:54:05.248Z,81.18
2022-12-20T02:56:41.776Z,77.43
2022-12-20T02:59:16.993Z,78.28
2022-12-20T03:01:51.604Z,85.50
2022-12-20T03:04:22.773Z,76.32
2022-12-20T03:07:13.434Z,78.60
2022-12-20T03:09:43.026Z,76.60
2022-12-20T03:12:12.004Z,80.38
2022-12-20T03:14:40.796Z,80.80
2022-12-20T03:17:10.479Z,81.88
2022-12-20T03:19:38.932Z,79.80
2022-12-20T03:22:06.733Z,83.03
2022-12-20T03:24:34.324Z,84.07
2022-12-20T03:27:06.063Z,81.03
2022-12-20T03:29:33.514Z,76.45
2022-12-20T03:32:01.197Z,86.45
2022-12-20T03:34:28.676Z,84.20
2022-12-20T03:36:56.058Z,79.82
2022-12-20T03:39:23.599Z,79.63
2022-12-20T03:41:53.971Z,81.88
2022-12-20T03:44:21.652Z,86.07
2022-12-20T03:46:50.047Z,86.57
2022-12-20T03:49:18.641Z,83.47
2022-12-20T03:51:50.087Z,80.15
2022-12-20T03:54:17.748Z,90.97
2022-12-20T03:57:01.585Z,80.43
2022-12-20T03:59:31.143Z,83.95
2022-12-20T04:02:00.193Z,81.50
2022-12-20T04:04:29.996Z,76.70
2022-12-20T04:06:57.436Z,75.97
2022-12-20T04:09:24.865Z,81.13
2022-12-20T04:11:57.644Z,84.95
2022-12-20T04:14:25.064Z,84.28
2022-12-20T04:16:52.456Z,81.55
2022-12-20T04:19:22.821Z,85.70
2022-12-20T04:21:50.570Z,79.30
2022-12-20T04:24:20.002Z,84.68
2022-12-20T04:27:11.440Z,82.70
2022-12-20T04:29:38.998Z,81.78
2022-12-20T04:32:09.675Z,85.22
2022-12-20T04:34:37.071Z,78.95
2022-12-20T04:37:04.851Z,84.88
2022-12-20T04:39:43.682Z,78.10
2022-12-20T04:42:23.521Z,94.53
2022-12-20T04:44:51.982Z,86.18
2022-12-20T04:47:24.519Z,92.82
2022-12-20T04:49:53.359Z,88.88
2022-12-20T04:52:43.591Z,83.30
2022-12-20T04:55:15.253Z,92.57
2022-12-20T04:57:42.719Z,98.70
2022-12-20T05:00:11.132Z,85.47
2022-12-20T05:02:43.526Z,85.22
2022-12-20T05:05:14.609Z,95.97
2022-12-20T05:07:48.276Z,88.65
2022-12-20T05:10:15.811Z,88.13
2022-12-20T05:12:44.696Z,94.72
2022-12-20T05:15:19.283Z,83.35
2022-12-20T05:17:46.773Z,93.45
2022-12-20T05:20:14.627Z,82.80
2022-12-20T05:23:02.961Z,94.35
2022-12-20T05:25:48.896Z,82.68
2022-12-20T05:28:17.165Z,109.25
2022-12-20T05:30:44.676Z,80.97
2022-12-20T05:33:12.907Z,88.18
2022-12-20T05:35:42.553Z,87.97
2022-12-20T05:38:12.924Z,82.85
2022-12-20T05:40:41.387Z,84.38
2022-12-20T05:43:09.908Z,90.25
2022-12-20T05:45:50.953Z,85.03
2022-12-20T05:48:22.813Z,83.90
2022-12-20T05:50:50.252Z,91.45
2022-12-20T05:53:40.431Z,102.95
2022-12-20T05:56:08.479Z,93.75
2022-12-20T05:58:38.777Z,124.22
2022-12-20T06:01:07.914Z,136.45
2022-12-20T06:03:40.672Z,120.43
2022-12-20T06:06:15.038Z,136.55
2022-12-20T06:08:45.536Z,118.05
2022-12-20T06:11:21.985Z,136.07
2022-12-20T06:13:57.886Z,147.00
2022-12-20T06:16:25.679Z,153.80
2022-12-20T06:18:55.348Z,171.80
2022-12-20T06:21:23.683Z,220.50
2022-12-20T06:23:53.402Z,172.57
2022-12-20T06:26:23.404Z,181.25
2022-12-20T06:28:56.895Z,179.63
2022-12-20T06:31:36.666Z,175.35
2022-12-20T06:34:04.095Z,167.60
2022-12-20T06:36:35.573Z,192.88
2022-12-20T06:39:07.778Z,172.02
2022-12-20T06:41:41.092Z,158.20
2022-12-20T06:44:08.701Z,130.15
2022-12-20T06:46:36.232Z,130.18
2022-12-20T06:49:04.378Z,150.02
2022-12-20T06:51:33.556Z,135.43
2022-12-20T06:54:01.818Z,155.13
2022-12-20T06:56:37.608Z,176.02
2022-12-20T06:59:10.305Z,150.32
2022-12-20T07:01:37.881Z,167.23
2022-12-20T07:04:05.754Z,177.25
2022-12-20T07:06:33.164Z,154.80
2022-12-20T07:09:00.738Z,139.43
2022-12-20T07:11:28.190Z,119.60
2022-12-20T07:13:57.016Z,129.93
2022-12-20T07:16:24.801Z,125.03
2022-12-20T07:18:54.161Z,117.88
2022-12-20T07:21:22.514Z,117.80
2022-12-20T07:23:49.944Z,128.32
2022-12-20T07:26:17.426Z,119.57
2022-12-20T07:28:45.088Z,120.30
2022-12-20T07:31:12.607Z,118.10
2022-12-20T07:33:40.191Z,131.75
2022-12-20T07:36:11.463Z,120.80
2022-12-20T07:38:39.371Z,126.97
2022-12-20T07:41:08.878Z,120.13
2022-12-20T07:43:36.635Z,131.13
2022-12-20T07:46:05.809Z,126.00
2022-12-20T07:48:33.872Z,109.88
2022-12-20T07:51:17.809Z,125.82
2022-12-20T07:53:50.217Z,140.07
2022-12-20T07:56:21.045Z,146.93
2022-12-20T07:58:52.109Z,131.80
2022-12-20T08:01:21.512Z,117.40
2022-12-20T08:03:53.105Z,128.57
2022-12-20T08:06:21.110Z,136.40
2022-12-20T08:08:54.425Z,136.05
2022-12-20T08:11:23.816Z,131.65
2022-12-20T08:13:57.567Z,133.30
2022-12-20T08:16:25.955Z,133.88
2022-12-20T08:18:53.464Z,126.30
2022-12-20T08:21:39.135Z,125.18
2022-12-20T08:24:06.794Z,131.48
2022-12-20T08:26:38.693Z,136.57
2022-12-20T08:29:06.343Z,129.90
2022-12-20T08:31:33.944Z,130.23
2022-12-20T08:34:01.412Z,123.85
2022-12-20T08:36:28.834Z,115.25
2022-12-20T08:38:56.532Z,125.07
2022-12-20T08:41:24.193Z,124.05
2022-12-20T08:43:51.555Z,121.72
2022-12-20T08:46:19.004Z,116.32
2022-12-20T08:48:46.435Z,136.52
2022-12-20T08:51:13.894Z,123.15
2022-12-20T08:53:41.391Z,129.10
2022-12-20T08:56:12.868Z,141.27
2022-12-20T08:58:41.127Z,142.18
2022-12-20T09:01:11.712Z,142.10
2022-12-20T09:03:40.432Z,139.35
2022-12-20T09:06:10.394Z,161.68
2022-12-20T09:08:39.440Z,159.20
2022-12-20T09:11:09.727Z,140.95
2022-12-20T09:13:43.466Z,149.73
2022-12-20T09:16:14.286Z,166.18
2022-12-20T09:18:42.717Z,160.43
2022-12-20T09:21:11.087Z,155.98
2022-12-20T09:23:38.936Z,161.23
2022-12-20T09:26:12.025Z,142.25
2022-12-20T09:28:39.659Z,173.23
2022-12-20T09:31:09.060Z,154.30
2022-12-20T09:33:36.589Z,157.45
2022-12-20T09:36:04.773Z,154.18
2022-12-20T09:38:33.025Z,146.55
2022-12-20T09:41:04.024Z,151.88
2022-12-20T09:43:32.567Z,145.10
2022-12-20T09:46:02.669Z,138.35
2022-12-20T09:48:37.257Z,154.27
2022-12-20T09:51:10.885Z,155.13
2022-12-20T09:54:15.599Z,149.07
2022-12-20T09:56:51.501Z,143.93
2022-12-20T09:59:20.842Z,139.68
2022-12-20T10:01:53.100Z,154.20
2022-12-20T10:04:25.017Z,155.25
2022-12-20T10:07:06.348Z,151.90
2022-12-20T10:10:08.525Z,140.88
2022-12-20T10:12:41.859Z,150.23
2022-12-20T10:15:19.231Z,143.65
2022-12-20T10:18:06.371Z,139.73
2022-12-20T10:20:57.989Z,137.45
2022-12-20T10:23:45.310Z,119.07
2022-12-20T10:26:14.120Z,118.57
2022-12-20T10:28:41.585Z,111.07
2022-12-20T10:31:14.017Z,125.15
2022-12-20T10:33:42.373Z,117.18
2022-12-20T10:36:27.117Z,122.75
2022-12-20T10:39:00.476Z,118.43
2022-12-20T10:41:28.985Z,129.38
2022-12-20T10:43:59.385Z,122.80
2022-12-20T10:46:43.625Z,112.75
2022-12-20T10:49:34.327Z,111.28
2022-12-20T10:52:13.332Z,129.88
2022-12-20T10:54:42.961Z,115.90
2022-12-20T10:57:16.316Z,122.35
2022-12-20T11:00:07.098Z,122.03
2022-12-20T11:02:42.648Z,123.18
2022-12-20T11:05:14.554Z,119.20
2022-12-20T11:10:46.054Z,130.32
2022-12-20T11:13:22.481Z,115.88
2022-12-20T11:15:54.796Z,117.97
2022-12-20T11:18:38.290Z,111.35
2022-12-20T11:21:28.586Z,118.93
2022-12-20T11:24:14.368Z,134.80
2022-12-20T11:27:15.104Z,121.75
2022-12-20T11:30:13.361Z,111.68
2022-12-20T11:32:49.384Z,114.32
2022-12-20T11:35:50.368Z,111.03
2022-12-20T11:38:31.931Z,141.43
2022-12-20T11:41:27.244Z,107.75
2022-12-20T11:44:26.534Z,118.28
2022-12-20T11:47:17.137Z,123.22
2022-12-20T11:49:44.622Z,112.63
2022-12-20T11:52:27.796Z,129.98
2022-12-20T11:55:12.977Z,125.57
2022-12-20T11:58:18.261Z,131.07
2022-12-20T12:00:55.049Z,125.68
2022-12-20T12:03:35.325Z,123.05
2022-12-20T12:06:12.449Z,112.03
2022-12-20T12:08:42.704Z,117.22
2022-12-20T12:14:52.116Z,125.35
2022-12-20T12:17:57.053Z,106.13
2022-12-20T12:20:24.416Z,125.95
2022-12-20T12:23:01.554Z,134.18
2022-12-20T12:25:28.976Z,138.13
2022-12-20T12:27:56.404Z,137.18
2022-12-20T12:30:24.404Z,156.68
2022-12-20T12:33:03.239Z,150.15
2022-12-20T12:35:51.248Z,144.27
2022-12-20T12:39:02.445Z,153.82
2022-12-20T12:41:53.530Z,152.73
2022-12-20T12:44:35.413Z,147.07
2022-12-20T12:47:11.796Z,163.45
2022-12-20T12:49:40.266Z,164.05
2022-12-20T12:52:07.737Z,188.18
2022-12-20T12:54:41.064Z,171.85
2022-12-20T12:57:16.945Z,168.38
2022-12-20T12:59:48.291Z,308.00
2022-12-20T13:02:16.577Z,173.10
2022-12-20T13:04:53.039Z,169.10
2022-12-20T13:07:32.751Z,230.50
2022-12-20T13:10:01.900Z,173.27
2022-12-20T13:12:38.157Z,234.73
2022-12-20T13:15:21.049Z,189.48
2022-12-20T13:18:13.494Z,164.70
2022-12-20T13:20:45.036Z,166.02
2022-12-20T13:23:17.411Z,169.95
2022-12-20T13:25:47.794Z,166.88
2022-12-20T13:28:24.687Z,171.73
2022-12-20T13:31:01.109Z,161.95
2022-12-20T13:33:43.388Z,172.30
2022-12-20T13:36:10.797Z,172.23
2022-12-20T13:38:47.039Z,165.07
2022-12-20T13:41:36.486Z,151.00
2022-12-20T13:44:10.739Z,149.82
2022-12-20T13:46:43.689Z,166.50
2022-12-20T13:49:38.606Z,159.82
2022-12-20T13:52:11.712Z,184.82
2022-12-20T13:54:44.670Z,177.52
2022-12-20T13:57:21.823Z,172.95
2022-12-20T13:59:53.080Z,181.18
2022-12-20T14:02:30.880Z,162.97
2022-12-20T14:05:16.371Z,179.45
2022-12-20T14:07:46.912Z,181.80
2022-12-20T14:10:21.601Z,174.68
2022-12-20T14:12:54.441Z,168.88
2022-12-20T14:15:26.212Z,164.38
2022-12-20T14:17:53.704Z,168.48
2022-12-20T14:20:25.860Z,179.82
2022-12-20T14:23:07.159Z,190.73
2022-12-20T14:25:58.400Z,182.57
2022-12-20T14:28:36.849Z,181.30
2022-12-20T14:31:06.218Z,159.98
2022-12-20T14:33:41.768Z,175.02
2022-12-20T14:36:20.819Z,174.07
2022-12-20T14:38:52.629Z,184.98
2022-12-20T14:41:46.343Z,179.05
2022-12-20T14:44:17.404Z,167.65
2022-12-20T14:46:59.448Z,193.90
2022-12-20T14:49:38.652Z,181.82
2022-12-20T14:52:11.946Z,185.38
2022-12-20T14:55:07.803Z,180.20
2022-12-20T14:57:36.056Z,183.50
2022-12-20T15:00:18.967Z,175.10
2022-12-20T15:02:46.611Z,183.75
2022-12-20T15:05:38.931Z,179.18
2022-12-20T15:08:16.902Z,184.40
2022-12-20T15:11:03.935Z,180.02
2022-12-20T15:13:34.389Z,291.42
2022-12-20T15:16:22.551Z,200.35
2022-12-20T15:18:55.258Z,167.45
2022-12-20T15:21:28.705Z,199.52
2022-12-20T15:23:57.865Z,183.70
2022-12-20T15:26:26.968Z,177.70
2022-12-20T15:28:54.941Z,161.20
2022-12-20T15:31:30.733Z,173.68
2022-12-20T15:34:02.326Z,170.13
2022-12-20T15:36:30.657Z,169.75
2022-12-20T15:39:15.200Z,166.20
2022-12-20T15:41:49.014Z,242.25
2022-12-20T15:44:22.742Z,241.63
2022-12-20T15:46:50.743Z,182.50
2022-12-20T15:49:24.209Z,186.70
2022-12-20T15:51:53.633Z,178.50
2022-12-20T15:54:28.325Z,169.00
2022-12-20T15:56:58.203Z,179.68
2022-12-20T15:59:58.341Z,160.63
2022-12-20T16:02:32.620Z,159.85
2022-12-20T16:05:01.544Z,170.77
2022-12-20T16:07:28.962Z,178.70
2022-12-20T16:09:56.388Z,188.65
2022-12-20T16:12:28.269Z,202.18
2022-12-20T16:14:55.636Z,197.02
2022-12-20T16:17:23.280Z,186.80
2022-12-20T16:19:50.716Z,193.43
2022-12-20T16:22:22.180Z,184.85
2022-12-20T16:24:50.674Z,205.52
2022-12-20T16:27:18.127Z,209.68
2022-12-20T16:29:45.754Z,181.80
2022-12-20T16:32:18.328Z,198.75
2022-12-20T16:34:46.161Z,200.55
2022-12-20T16:37:13.858Z,198.38
2022-12-20T16:39:42.528Z,206.40
2022-12-20T16:42:18.463Z,210.23
2022-12-20T16:44:47.740Z,187.88
2022-12-20T16:47:15.287Z,203.05
2022-12-20T16:49:51.675Z,200.95
2022-12-20T16:52:23.632Z,190.93
2022-12-20T16:54:51.360Z,215.32
2022-12-20T16:57:19.666Z,191.68
2022-12-20T16:59:47.064Z,215.43
2022-12-20T17:02:27.312Z,214.77
2022-12-20T17:04:55.464Z,224.48
2022-12-20T17:07:22.912Z,202.27
2022-12-20T17:09:50.430Z,195.25
2022-12-20T17:12:22.593Z,205.77
2022-12-20T17:14:50.085Z,190.18
2022-12-20T17:17:17.675Z,196.02
2022-12-20T17:19:45.184Z,194.13
2022-12-20T17:25:03.283Z,181.40
2022-12-20T17:27:31.007Z,193.45
2022-12-20T17:29:58.416Z,191.57
2022-12-20T17:32:26.229Z,199.20
2022-12-20T17:34:53.825Z,164.82
2022-12-20T17:37:21.768Z,209.30
2022-12-20T17:39:49.478Z,190.95
2022-12-20T17:42:17.180Z,192.82
2022-12-20T17:44:46.249Z,176.80
2022-12-20T17:47:13.955Z,196.88
2022-12-20T17:49:41.375Z,195.85
2022-12-20T17:52:15.760Z,185.40
2022-12-20T17:54:43.450Z,199.57
2022-12-20T17:57:19.674Z,217.82
2022-12-20T17:59:47.177Z,188.50
2022-12-20T18:02:21.424Z,210.20
2022-12-20T18:04:49.154Z,205.85
2022-12-20T18:07:16.660Z,211.43
2022-12-20T18:09:47.596Z,206.63
2022-12-20T18:12:15.058Z,218.23
2022-12-20T18:14:42.467Z,220.75
2022-12-20T18:17:09.931Z,217.00
2022-12-20T18:19:37.451Z,230.52
2022-12-20T18:22:05.026Z,220.32
2022-12-20T18:24:32.622Z,348.70
2022-12-20T18:27:00.204Z,241.40
2022-12-20T18:29:28.515Z,229.63
2022-12-20T18:31:55.992Z,219.40
2022-12-20T18:34:23.672Z,226.32
2022-12-20T18:36:51.067Z,219.75
2022-12-20T18:39:18.512Z,213.20
2022-12-20T18:41:46.389Z,225.77
2022-12-20T18:44:13.772Z,228.60
2022-12-20T18:46:41.162Z,209.77
2022-12-20T18:49:09.582Z,235.88
2022-12-20T18:51:37.386Z,230.30
2022-12-20T18:54:07.260Z,233.48
2022-12-20T18:56:37.496Z,246.68
2022-12-20T18:59:14.209Z,216.27
2022-12-20T19:01:42.733Z,224.77
2022-12-20T19:04:10.993Z,226.98
2022-12-20T19:06:38.735Z,201.90
2022-12-20T19:09:13.232Z,206.85
2022-12-20T19:11:40.992Z,204.88
2022-12-20T19:14:09.236Z,217.13
2022-12-20T19:16:39.676Z,213.60
2022-12-20T19:19:10.859Z,218.95
2022-12-20T19:21:42.825Z,229.50
2022-12-20T19:24:11.111Z,206.38
2022-12-20T19:26:39.717Z,216.82
2022-12-20T19:29:07.503Z,216.40
2022-12-20T19:31:37.446Z,212.32
2022-12-20T19:34:10.882Z,210.25
2022-12-20T19:36:41.246Z,224.70
2022-12-20T19:39:25.986Z,198.52
2022-12-20T19:42:22.944Z,206.75
2022-12-20T19:44:40.811Z,208.60
2022-12-20T19:47:08.209Z,199.20
2022-12-20T19:49:36.478Z,201.02
2022-12-20T19:52:05.870Z,201.40
2022-12-20T19:54:33.447Z,218.27
2022-12-20T19:57:00.897Z,212.10
2022-12-20T19:59:30.872Z,221.25
2022-12-20T20:01:59.403Z,216.73
2022-12-20T20:04:27.268Z,220.50
2022-12-20T20:06:57.542Z,209.70
2022-12-20T20:09:25.028Z,191.05
2022-12-20T20:11:52.398Z,237.50
2022-12-20T20:14:19.781Z,220.85
2022-12-20T20:16:47.459Z,226.30
2022-12-20T20:19:14.868Z,217.05
2022-12-20T20:21:42.424Z,199.15
2022-12-20T20:24:09.921Z,204.77
2022-12-20T20:26:37.537Z,193.00
2022-12-20T20:29:06.944Z,199.52
2022-12-20T20:31:36.319Z,199.70
2022-12-20T20:34:03.926Z,208.13
2022-12-20T20:36:31.628Z,213.13
2022-12-20T20:38:59.389Z,215.15
2022-12-20T20:41:26.967Z,212.95
2022-12-20T20:43:54.348Z,208.05
2022-12-20T20:46:22.645Z,197.32
2022-12-20T20:48:50.141Z,205.73
2022-12-20T20:51:17.523Z,190.40
2022-12-20T20:53:45.317Z,208.00
2022-12-20T20:56:13.070Z,186.55
2022-12-20T20:58:40.570Z,192.13
2022-12-20T21:01:09.140Z,190.90
2022-12-20T21:03:37.421Z,186.48
2022-12-20T21:08:56.121Z,175.77
2022-12-20T21:11:23.857Z,180.15
2022-12-20T21:13:52.777Z,176.55
2022-12-20T21:16:20.918Z,164.48
2022-12-20T21:18:53.077Z,191.75
2022-12-20T21:21:21.207Z,159.38
2022-12-20T21:23:49.118Z,193.15
2022-12-20T21:26:18.422Z,174.07
2022-12-20T21:28:47.259Z,172.65
2022-12-20T21:31:17.240Z,182.93
2022-12-20T21:33:46.199Z,156.25
2022-12-20T21:36:16.221Z,167.98
2022-12-20T21:38:50.444Z,168.70
2022-12-20T21:41:19.251Z,171.68
2022-12-20T21:43:46.689Z,167.32
2022-12-20T21:46:14.132Z,166.68
2022-12-20T21:48:43.499Z,172.70
2022-12-20T21:51:22.332Z,187.43
2022-12-20T21:53:52.105Z,185.27
2022-12-20T21:56:20.310Z,187.75
2022-12-20T21:58:48.537Z,167.40
2022-12-20T22:01:19.739Z,178.88
2022-12-20T22:03:53.712Z,137.07
2022-12-20T22:06:21.944Z,173.38
2022-12-20T22:08:49.885Z,183.02
2022-12-20T22:11:18.656Z,188.43
2022-12-20T22:13:46.575Z,246.60
2022-12-20T22:16:15.485Z,187.77
2022-12-20T22:18:44.576Z,172.48
2022-12-20T22:21:15.704Z,194.95
2022-12-20T22:23:43.476Z,170.20
2022-12-20T22:26:17.252Z,170.07
2022-12-20T22:28:50.217Z,178.55
2022-12-20T22:31:18.537Z,161.90
2022-12-20T22:33:46.255Z,185.80
2022-12-20T22:36:15.925Z,183.88
2022-12-20T22:38:44.734Z,180.88
2022-12-20T22:41:17.949Z,177.98
2022-12-20T22:43:47.298Z,180.82
2022-12-20T22:46:17.015Z,169.35
2022-12-20T22:48:45.785Z,176.85
2022-12-20T22:51:16.440Z,176.07
2022-12-20T22:53:44.756Z,174.82
2022-12-20T22:56:12.290Z,172.05
2022-12-20T22:58:40.036Z,193.88
2022-12-20T23:01:10.675Z,171.82
2022-12-20T23:03:39.005Z,200.20
2022-12-20T23:06:08.008Z,182.63
2022-12-20T23:08:37.406Z,173.00
2022-12-20T23:11:28.359Z,188.25
2022-12-20T23:14:14.224Z,178.77
2022-12-20T23:16:41.625Z,166.43
2022-12-20T23:19:09.131Z,159.15
2022-12-20T23:21:54.931Z,179.68
2022-12-20T23:24:22.477Z,169.98
2022-12-20T23:26:49.969Z,180.02
2022-12-20T23:29:17.573Z,167.55
2022-12-20T23:31:45.021Z,181.70
2022-12-20T23:34:12.437Z,183.73
2022-12-20T23:36:40.127Z,185.07
2022-12-20T23:39:07.884Z,189.18
2022-12-20T23:41:35.319Z,173.75
2022-12-20T23:44:06.815Z,177.90
2022-12-20T23:46:34.731Z,177.90
2022-12-20T23:49:02.162Z,164.35
2022-12-20T23:51:29.626Z,186.85
2022-12-20T23:53:57.135Z,173.35
2022-12-20T23:56:24.582Z,189.27
2022-12-20T23:58:53.995Z,178.73
